createdAt,value
2023-05-11T00:03:15.782Z,965.7
2023-05-11T00:07:58.598Z,965.7
2023-05-11T00:12:41.312Z,965.8
2023-05-11T00:17:24.020Z,965.7
2023-05-11T00:22:06.755Z,965.7
2023-05-11T00:26:49.460Z,965.7
2023-05-11T00:36:14.971Z,965.6
2023-05-11T00:40:57.714Z,965.6
2023-05-11T00:45:40.390Z,965.6
2023-05-11T00:50:23.105Z,965.5
2023-05-11T00:55:05.958Z,965.6
2023-05-11T00:59:48.632Z,965.5
2023-05-11T01:04:31.350Z,965.5
2023-05-11T01:09:14.062Z,965.5
2023-05-11T01:13:56.767Z,965.5
2023-05-11T01:18:39.542Z,965.5
2023-05-11T01:23:22.301Z,965.5
2023-05-11T01:28:05.010Z,965.4
2023-05-11T01:32:47.725Z,965.5
2023-05-11T01:37:30.459Z,965.4
2023-05-11T01:42:12.571Z,965.5
2023-05-11T01:46:55.258Z,965.5
2023-05-11T01:51:38.073Z,965.5
2023-05-11T01:56:20.682Z,965.5
2023-05-11T02:01:03.394Z,965.5
2023-05-11T02:05:46.205Z,965.5
2023-05-11T02:10:28.920Z,965.5
2023-05-11T02:15:10.985Z,965.5
2023-05-11T02:19:53.641Z,965.5
2023-05-11T02:24:36.352Z,965.5
2023-05-11T02:29:19.068Z,965.5
2023-05-11T02:34:01.787Z,965.5
2023-05-11T02:38:44.603Z,965.5
2023-05-11T02:43:27.309Z,965.5
2023-05-11T02:48:10.026Z,965.5
2023-05-11T02:57:35.537Z,965.5
2023-05-11T03:02:18.257Z,965.5
2023-05-11T03:07:00.975Z,965.5
2023-05-11T03:11:43.686Z,965.5
2023-05-11T03:16:26.397Z,965.4
2023-05-11T03:21:09.112Z,965.5
2023-05-11T03:25:51.926Z,965.5
2023-05-11T03:30:34.639Z,965.5
2023-05-11T03:35:17.359Z,965.3
2023-05-11T03:40:00.082Z,965.3
2023-05-11T03:44:42.812Z,965.4
2023-05-11T03:49:25.538Z,965.3
2023-05-11T03:54:08.300Z,965.3
2023-05-11T03:58:51.017Z,965.3
2023-05-11T04:08:16.447Z,965.2
2023-05-11T04:12:58.472Z,965.2
2023-05-11T04:17:41.156Z,965.2
2023-05-11T04:22:23.981Z,965.2
2023-05-11T04:27:06.685Z,965.2
2023-05-11T04:31:49.414Z,965.2
2023-05-11T04:36:31.409Z,965.2
2023-05-11T04:41:14.121Z,965.2
2023-05-11T04:45:56.901Z,965.2
2023-05-11T04:50:39.554Z,965.3
2023-05-11T04:55:22.359Z,965.2
2023-05-11T05:00:05.075Z,965.2
2023-05-11T05:04:47.785Z,965.2
2023-05-11T05:14:13.246Z,965.2
2023-05-11T05:18:56.026Z,965.3
2023-05-11T05:23:38.740Z,965.4
2023-05-11T05:28:21.463Z,965.3
2023-05-11T05:33:04.166Z,965.3
2023-05-11T05:37:46.880Z,965.4
2023-05-11T05:42:29.696Z,965.4
2023-05-11T05:47:12.401Z,965.4
2023-05-11T05:56:37.827Z,965.5
2023-05-11T06:01:20.626Z,965.5
2023-05-11T06:06:03.279Z,965.5
2023-05-11T06:15:28.780Z,965.5
2023-05-11T06:20:11.484Z,965.6
2023-05-11T06:24:54.204Z,965.5
2023-05-11T06:29:36.911Z,965.5
2023-05-11T06:34:19.733Z,965.6
2023-05-11T06:39:02.634Z,965.6
2023-05-11T06:43:45.253Z,965.6
2023-05-11T06:48:27.899Z,965.6
2023-05-11T06:53:10.588Z,965.5
2023-05-11T06:57:52.592Z,965.5
2023-05-11T07:02:35.308Z,965.5
2023-05-11T07:07:18.120Z,965.4
2023-05-11T07:12:00.824Z,965.5
2023-05-11T07:16:43.533Z,965.5
2023-05-11T07:21:26.251Z,965.5
2023-05-11T07:26:08.979Z,965.5
2023-05-11T07:30:51.772Z,965.5
2023-05-11T07:40:17.199Z,965.5
2023-05-11T07:44:59.911Z,965.6
2023-05-11T07:49:42.619Z,965.6
2023-05-11T07:54:25.600Z,965.6
2023-05-11T07:59:08.149Z,965.5
2023-05-11T08:03:50.945Z,965.6
2023-05-11T08:08:32.890Z,965.5
2023-05-11T08:13:15.589Z,965.6
2023-05-11T08:17:58.303Z,965.5
2023-05-11T08:22:41.021Z,965.6
2023-05-11T08:27:23.826Z,965.5
2023-05-11T08:36:49.252Z,965.5
2023-05-11T08:41:31.968Z,965.5
2023-05-11T08:46:14.678Z,965.5
2023-05-11T08:50:57.489Z,965.5
2023-05-11T08:55:40.203Z,965.5
2023-05-11T09:00:22.918Z,965.5
2023-05-11T09:05:05.635Z,965.5
2023-05-11T09:09:48.340Z,965.5
2023-05-11T09:19:13.069Z,965.5
2023-05-11T09:23:55.916Z,965.5
2023-05-11T09:28:38.586Z,965.5
2023-05-11T09:33:21.374Z,965.4
2023-05-11T09:38:04.013Z,965.4
2023-05-11T09:42:46.737Z,965.4
2023-05-11T09:47:29.582Z,965.4
2023-05-11T09:52:12.256Z,965.3
2023-05-11T09:56:54.968Z,965.2
2023-05-11T10:01:37.696Z,965.3
2023-05-11T10:06:20.389Z,965.3
2023-05-11T10:11:03.277Z,965.3
2023-05-11T10:15:45.114Z,965.2
2023-05-11T10:20:27.927Z,965.2
2023-05-11T10:29:53.351Z,965.2
2023-05-11T10:34:36.059Z,965.2
2023-05-11T10:44:01.598Z,965.1
2023-05-11T10:48:44.298Z,965.1
2023-05-11T10:58:09.723Z,965.2
2023-05-11T11:02:52.437Z,965.3
2023-05-11T11:07:35.271Z,965.2
2023-05-11T11:12:17.986Z,965.2
2023-05-11T11:17:00.809Z,965.3
2023-05-11T11:21:43.392Z,965.3
2023-05-11T11:26:25.403Z,965.2
2023-05-11T11:31:08.214Z,965.3
2023-05-11T11:40:32.948Z,965.2
2023-05-11T11:45:15.649Z,965.2
2023-05-11T11:49:58.362Z,965.3
2023-05-11T11:54:41.097Z,965.2
2023-05-11T11:59:23.789Z,965.2
2023-05-11T12:04:06.597Z,965.3
2023-05-11T12:08:49.309Z,965.2
2023-05-11T12:13:32.157Z,965.2
2023-05-11T12:18:14.735Z,965.3
2023-05-11T12:32:22.927Z,965.3
2023-05-11T12:37:05.647Z,965.3
2023-05-11T12:51:13.888Z,965.3
2023-05-11T12:55:56.601Z,965.3
2023-05-11T13:00:39.318Z,965.3
2023-05-11T13:05:22.124Z,965.3
2023-05-11T13:10:04.134Z,965.3
2023-05-11T13:14:46.141Z,965.3
2023-05-11T13:19:28.854Z,965.3
2023-05-11T13:24:11.569Z,965.3
2023-05-11T13:28:54.285Z,965.2
2023-05-11T13:33:36.998Z,965.3
2023-05-11T13:38:19.802Z,965.2
2023-05-11T13:43:02.528Z,965.2
2023-05-11T13:47:45.248Z,965.1
2023-05-11T13:52:27.948Z,965.2
2023-05-11T14:01:53.490Z,965.1
2023-05-11T14:06:36.191Z,965.1
2023-05-11T14:11:18.912Z,965
2023-05-11T14:16:01.617Z,964.9
2023-05-11T14:20:44.326Z,964.9
2023-05-11T14:25:27.135Z,964.9
2023-05-11T14:34:52.595Z,964.8
2023-05-11T14:39:35.282Z,964.9
2023-05-11T14:44:17.991Z,964.9
2023-05-11T14:53:43.531Z,964.9
2023-05-11T14:58:26.237Z,964.8
2023-05-11T15:03:09.135Z,965
2023-05-11T15:12:34.376Z,965
2023-05-11T15:17:17.193Z,965.1
2023-05-11T15:21:59.914Z,965.2
2023-05-11T15:31:25.329Z,965.3
2023-05-11T15:36:08.038Z,965.4
2023-05-11T15:50:16.279Z,965.4
2023-05-11T15:54:58.980Z,965.4
2023-05-11T15:59:41.696Z,965.5
2023-05-11T16:09:07.723Z,965.5
2023-05-11T16:13:51.041Z,965.5
2023-05-11T16:23:17.562Z,965.6
2023-05-11T16:28:00.776Z,965.5
2023-05-11T16:37:27.308Z,965.6
2023-05-11T16:46:53.865Z,965.6
2023-05-11T16:51:37.167Z,965.6
2023-05-11T17:01:03.680Z,965.7
2023-05-11T17:05:46.885Z,965.7
2023-05-11T17:10:31.099Z,965.7
2023-05-11T17:15:15.437Z,965.7
2023-05-11T17:19:59.638Z,965.7
2023-05-11T17:24:43.772Z,965.7
2023-05-11T17:34:12.086Z,965.7
2023-05-11T17:38:56.299Z,965.8
2023-05-11T17:43:40.521Z,965.8
2023-05-11T17:48:24.645Z,965.9
2023-05-11T17:53:08.867Z,965.9
2023-05-11T17:57:52.958Z,965.9
2023-05-11T18:02:37.172Z,965.9
2023-05-11T18:12:05.485Z,966
2023-05-11T18:16:49.705Z,966
2023-05-11T18:26:18.225Z,966.1
2023-05-11T18:31:02.462Z,966.1
2023-05-11T18:49:59.193Z,966.2
2023-05-11T18:54:43.407Z,966.2
2023-05-11T18:59:27.519Z,966.3
2023-05-11T19:04:11.739Z,966.3
2023-05-11T19:08:55.881Z,966.4
2023-05-11T19:13:40.193Z,966.4
2023-05-11T19:18:24.416Z,966.4
2023-05-11T19:23:08.546Z,966.5
2023-05-11T19:27:52.614Z,966.5
2023-05-11T19:32:36.735Z,966.5
2023-05-11T19:37:20.987Z,966.5
2023-05-11T19:42:05.211Z,966.5
2023-05-11T19:46:49.303Z,966.5
2023-05-11T19:51:33.485Z,966.6
2023-05-11T19:56:17.662Z,966.6
2023-05-11T20:01:01.809Z,966.6
2023-05-11T20:05:46.006Z,966.6
2023-05-11T20:10:30.255Z,966.6
2023-05-11T20:15:14.312Z,966.6
2023-05-11T20:19:58.496Z,966.7
2023-05-11T20:24:43.092Z,966.6
2023-05-11T20:29:27.478Z,966.6
2023-05-11T20:34:11.621Z,966.6
2023-05-11T20:38:55.839Z,966.6
2023-05-11T20:43:39.982Z,966.6
2023-05-11T20:48:24.174Z,966.6
2023-05-11T20:53:08.285Z,966.5
2023-05-11T20:57:52.509Z,966.6
2023-05-11T21:02:36.608Z,966.5
2023-05-11T21:07:20.836Z,966.5
2023-05-11T21:12:05.439Z,966.5
2023-05-11T21:16:49.968Z,966.5
2023-05-11T21:21:33.979Z,966.5
2023-05-11T21:26:18.240Z,966.5
2023-05-11T21:31:02.302Z,966.6
2023-05-11T21:35:46.517Z,966.5
2023-05-11T21:40:30.660Z,966.5
2023-05-11T21:45:14.929Z,966.5
2023-05-11T21:49:59.065Z,966.6
2023-05-11T21:54:43.175Z,966.6
2023-05-11T21:59:27.808Z,966.7
2023-05-11T22:04:12.018Z,966.7
2023-05-11T22:08:56.650Z,966.7
2023-05-11T22:13:41.044Z,966.6
2023-05-11T22:18:25.201Z,966.7
2023-05-11T22:23:09.401Z,966.7
2023-05-11T22:27:53.488Z,966.7
2023-05-11T22:32:37.699Z,966.7
2023-05-11T22:37:21.819Z,966.7
2023-05-11T22:42:06.030Z,966.7
2023-05-11T22:46:50.248Z,966.7
2023-05-11T22:51:34.363Z,966.7
2023-05-11T22:56:18.080Z,966.8
2023-05-11T23:01:00.885Z,966.8
2023-05-11T23:05:44.104Z,966.7
2023-05-11T23:10:27.427Z,966.7
2023-05-11T23:15:10.641Z,966.7
2023-05-11T23:19:53.950Z,966.7
2023-05-11T23:24:37.166Z,966.6
2023-05-11T23:29:20.479Z,966.6
2023-05-11T23:34:03.689Z,966.6
2023-05-11T23:38:47.004Z,966.7
2023-05-11T23:43:30.216Z,966.6
2023-05-11T23:48:13.530Z,966.6
2023-05-11T23:52:56.850Z,966.5
2023-05-11T23:57:40.060Z,966.5
